createdAt,value
2023-05-22T00:01:49.359Z,50.14
2023-05-22T00:04:22.013Z,50.50
2023-05-22T00:06:49.064Z,50.71
2023-05-22T00:09:15.777Z,50.93
2023-05-22T00:11:42.679Z,50.53
2023-05-22T00:14:09.216Z,50.92
2023-05-22T00:16:35.755Z,51.88
2023-05-22T00:19:02.168Z,51.92
2023-05-22T00:21:34.850Z,51.92
2023-05-22T00:24:01.892Z,52.03
2023-05-22T00:26:28.275Z,51.86
2023-05-22T00:28:54.786Z,51.86
2023-05-22T00:31:21.173Z,52.18
2023-05-22T00:33:47.629Z,52.38
2023-05-22T00:36:14.056Z,52.88
2023-05-22T00:38:40.605Z,52.79
2023-05-22T00:41:07.676Z,51.97
2023-05-22T00:43:34.237Z,52.04
2023-05-22T00:46:00.712Z,50.99
2023-05-22T00:48:27.355Z,51.61
2023-05-22T00:50:55.326Z,51.84
2023-05-22T00:53:22.620Z,51.97
2023-05-22T00:55:49.533Z,52.14
2023-05-22T00:58:18.081Z,52.49
2023-05-22T01:03:11.924Z,52.88
2023-05-22T01:05:39.868Z,53.28
2023-05-22T01:08:07.927Z,53.01
2023-05-22T01:10:36.536Z,52.28
2023-05-22T01:13:12.572Z,51.64
2023-05-22T01:15:43.590Z,51.13
2023-05-22T01:18:31.890Z,51.30
2023-05-22T01:21:06.478Z,51.49
2023-05-22T01:23:43.468Z,51.52
2023-05-22T01:26:36.775Z,52.03
2023-05-22T01:29:20.192Z,51.92
2023-05-22T01:31:48.994Z,51.73
2023-05-22T01:34:17.314Z,51.76
2023-05-22T01:36:46.354Z,52.11
2023-05-22T01:39:14.472Z,52.00
2023-05-22T01:41:41.099Z,52.30
2023-05-22T01:44:07.544Z,52.11
2023-05-22T01:46:34.058Z,52.52
2023-05-22T01:49:00.512Z,52.74
2023-05-22T01:51:42.144Z,52.51
2023-05-22T01:54:42.171Z,52.50
2023-05-22T01:57:28.876Z,52.65
2023-05-22T02:00:09.700Z,52.96
2023-05-22T02:02:38.622Z,52.75
2023-05-22T02:05:06.581Z,53.19
2023-05-22T02:07:36.544Z,53.15
2023-05-22T02:10:03.526Z,53.35
2023-05-22T02:12:30.551Z,53.75
2023-05-22T02:14:57.362Z,53.68
2023-05-22T02:17:24.362Z,53.86
2023-05-22T02:19:50.772Z,53.52
2023-05-22T02:22:17.333Z,53.76
2023-05-22T02:24:47.228Z,53.80
2023-05-22T02:27:14.147Z,54.62
2023-05-22T02:29:40.616Z,54.34
2023-05-22T02:32:07.323Z,54.07
2023-05-22T02:34:33.799Z,53.88
2023-05-22T02:37:03.571Z,54.48
2023-05-22T02:39:30.314Z,54.50
2023-05-22T02:41:56.807Z,54.83
2023-05-22T02:44:24.487Z,54.87
2023-05-22T02:46:50.884Z,54.90
2023-05-22T02:49:17.403Z,55.10
2023-05-22T02:51:47.452Z,55.05
2023-05-22T02:54:15.457Z,55.38
2023-05-22T02:56:43.181Z,55.42
2023-05-22T02:59:09.715Z,55.28
2023-05-22T03:01:36.394Z,55.33
2023-05-22T03:04:03.050Z,55.46
2023-05-22T03:06:29.685Z,55.66
2023-05-22T03:08:56.302Z,56.10
2023-05-22T03:11:22.728Z,56.17
2023-05-22T03:13:49.238Z,56.16
2023-05-22T03:16:15.679Z,55.76
2023-05-22T03:18:42.121Z,55.59
2023-05-22T03:21:08.583Z,55.22
2023-05-22T03:23:34.962Z,55.64
2023-05-22T03:26:01.464Z,55.72
2023-05-22T03:28:27.887Z,56.02
2023-05-22T03:30:54.534Z,55.69
2023-05-22T03:33:20.971Z,55.61
2023-05-22T03:35:47.360Z,55.80
2023-05-22T03:38:13.848Z,56.31
2023-05-22T03:40:40.786Z,56.11
2023-05-22T03:43:07.366Z,56.16
2023-05-22T03:45:33.822Z,56.40
2023-05-22T03:48:00.279Z,56.22
2023-05-22T03:50:26.713Z,56.36
2023-05-22T03:52:53.100Z,56.27
2023-05-22T03:55:19.508Z,56.24
2023-05-22T03:57:45.908Z,56.77
2023-05-22T04:00:13.549Z,56.82
2023-05-22T04:02:40.103Z,56.91
2023-05-22T04:05:08.157Z,57.32
2023-05-22T04:07:34.684Z,56.99
2023-05-22T04:10:01.123Z,57.00
2023-05-22T04:12:27.496Z,57.22
2023-05-22T04:14:54.879Z,57.04
2023-05-22T04:17:21.285Z,57.26
2023-05-22T04:19:47.794Z,57.44
2023-05-22T04:22:14.685Z,57.56
2023-05-22T04:24:41.223Z,57.59
2023-05-22T04:27:07.783Z,57.51
2023-05-22T04:29:36.317Z,57.41
2023-05-22T04:32:02.884Z,57.71
2023-05-22T04:34:30.127Z,57.85
2023-05-22T04:36:56.542Z,58.00
2023-05-22T04:39:26.200Z,58.15
2023-05-22T04:41:52.722Z,58.01
2023-05-22T04:44:22.748Z,57.97
2023-05-22T04:46:50.176Z,58.19
2023-05-22T04:49:16.626Z,58.14
2023-05-22T04:51:43.102Z,58.61
2023-05-22T04:54:09.602Z,58.36
2023-05-22T04:56:37.357Z,58.57
2023-05-22T04:59:05.363Z,58.85
2023-05-22T05:01:33.480Z,58.52
2023-05-22T05:04:00.532Z,59.09
2023-05-22T05:06:27.248Z,59.49
2023-05-22T05:08:54.116Z,59.59
2023-05-22T05:11:21.545Z,59.41
2023-05-22T05:13:47.967Z,59.86
2023-05-22T05:16:14.482Z,60.28
2023-05-22T05:18:40.870Z,60.08
2023-05-22T05:21:07.423Z,60.08
2023-05-22T05:23:33.892Z,60.59
2023-05-22T05:26:00.307Z,60.26
2023-05-22T05:28:26.797Z,60.30
2023-05-22T05:30:53.516Z,60.04
2023-05-22T05:33:20.005Z,60.40
2023-05-22T05:35:46.485Z,60.14
2023-05-22T05:38:12.864Z,60.02
2023-05-22T05:40:39.514Z,60.29
2023-05-22T05:43:09.043Z,60.05
2023-05-22T05:45:35.724Z,60.40
2023-05-22T05:48:02.239Z,59.88
2023-05-22T05:50:28.647Z,59.95
2023-05-22T05:52:55.041Z,60.41
2023-05-22T05:55:21.581Z,59.60
2023-05-22T05:57:47.988Z,59.32
2023-05-22T06:00:14.662Z,59.11
2023-05-22T06:02:41.896Z,58.93
2023-05-22T06:05:09.162Z,58.78
2023-05-22T06:07:37.995Z,58.43
2023-05-22T06:10:09.479Z,58.38
2023-05-22T06:12:36.321Z,58.10
2023-05-22T06:15:07.254Z,58.27
2023-05-22T06:17:34.759Z,58.15
2023-05-22T06:20:01.442Z,58.15
2023-05-22T06:22:29.193Z,58.25
2023-05-22T06:24:55.681Z,58.10
2023-05-22T06:27:22.845Z,57.98
2023-05-22T06:29:49.898Z,57.74
2023-05-22T06:32:16.625Z,57.47
2023-05-22T06:34:44.948Z,57.29
2023-05-22T06:37:11.884Z,57.13
2023-05-22T06:39:38.911Z,57.06
2023-05-22T06:42:05.557Z,56.69
2023-05-22T06:44:31.960Z,56.50
2023-05-22T06:46:58.405Z,56.57
2023-05-22T06:49:24.908Z,56.48
2023-05-22T06:51:51.581Z,56.07
2023-05-22T06:54:19.383Z,56.33
2023-05-22T06:56:46.111Z,56.11
2023-05-22T06:59:12.563Z,55.64
2023-05-22T07:01:39.042Z,55.35
2023-05-22T07:04:05.591Z,55.78
2023-05-22T07:06:33.594Z,55.41
2023-05-22T07:08:59.997Z,55.32
2023-05-22T07:11:26.393Z,54.57
2023-05-22T07:13:52.867Z,53.94
2023-05-22T07:16:19.344Z,53.73
2023-05-22T07:18:46.876Z,53.91
2023-05-22T07:21:13.268Z,54.12
2023-05-22T07:23:39.685Z,53.81
2023-05-22T07:26:07.462Z,53.68
2023-05-22T07:28:33.853Z,53.68
2023-05-22T07:31:00.324Z,53.57
2023-05-22T07:33:26.857Z,52.80
2023-05-22T07:35:53.291Z,52.99
2023-05-22T07:38:19.703Z,52.48
2023-05-22T07:40:46.329Z,52.70
2023-05-22T07:43:12.748Z,52.23
2023-05-22T07:45:40.127Z,51.98
2023-05-22T07:48:06.899Z,51.76
2023-05-22T07:50:33.528Z,51.38
2023-05-22T07:53:00.198Z,51.69
2023-05-22T07:55:26.707Z,51.44
2023-05-22T07:57:53.101Z,51.27
2023-05-22T08:00:20.062Z,50.95
2023-05-22T08:02:46.576Z,50.92
2023-05-22T08:05:13.175Z,50.55
2023-05-22T08:07:39.659Z,50.23
2023-05-22T08:10:15.393Z,49.46
2023-05-22T08:12:41.783Z,50.15
2023-05-22T08:15:08.578Z,48.87
2023-05-22T08:17:35.621Z,48.98
2023-05-22T08:20:02.316Z,48.55
2023-05-22T08:22:32.064Z,48.39
2023-05-22T08:24:58.548Z,47.91
2023-05-22T08:27:24.980Z,47.81
2023-05-22T08:29:52.118Z,47.59
2023-05-22T08:32:18.624Z,47.43
2023-05-22T08:34:46.063Z,47.63
2023-05-22T08:37:14.068Z,46.86
2023-05-22T08:39:40.736Z,47.14
2023-05-22T08:42:08.008Z,47.16
2023-05-22T08:44:34.563Z,46.94
2023-05-22T08:47:01.890Z,46.38
2023-05-22T08:49:28.488Z,46.51
2023-05-22T08:52:05.809Z,46.39
2023-05-22T08:54:36.387Z,46.74
2023-05-22T08:57:02.966Z,47.49
2023-05-22T08:59:30.440Z,47.81
2023-05-22T09:01:58.004Z,47.60
2023-05-22T09:04:24.543Z,47.24
2023-05-22T09:06:51.819Z,46.95
2023-05-22T09:09:18.612Z,47.30
2023-05-22T09:11:45.320Z,47.45
2023-05-22T09:14:12.055Z,48.09
2023-05-22T09:16:49.795Z,48.17
2023-05-22T09:19:16.376Z,48.49
2023-05-22T09:21:44.421Z,48.31
2023-05-22T09:24:11.582Z,48.55
2023-05-22T09:26:41.107Z,48.62
2023-05-22T09:29:08.088Z,48.65
2023-05-22T09:31:44.638Z,48.82
2023-05-22T09:34:14.417Z,48.63
2023-05-22T09:36:42.310Z,48.14
2023-05-22T09:39:09.474Z,48.30
2023-05-22T09:41:39.593Z,48.13
2023-05-22T09:44:13.791Z,48.69
2023-05-22T09:46:41.551Z,48.13
2023-05-22T09:49:08.274Z,48.18
2023-05-22T09:51:36.270Z,47.94
2023-05-22T09:54:04.016Z,47.77
2023-05-22T09:56:39.022Z,48.22
2023-05-22T09:59:09.237Z,48.45
2023-05-22T10:01:36.595Z,48.54
2023-05-22T10:04:04.702Z,48.14
2023-05-22T10:06:33.835Z,48.05
2023-05-22T10:09:05.049Z,48.16
2023-05-22T10:11:32.790Z,47.60
2023-05-22T10:14:00.711Z,48.25
2023-05-22T10:16:28.369Z,48.22
2023-05-22T10:18:56.283Z,48.31
2023-05-22T10:21:22.883Z,47.57
2023-05-22T10:23:49.893Z,47.98
2023-05-22T10:26:17.514Z,47.67
2023-05-22T10:28:51.395Z,47.97
2023-05-22T10:31:27.217Z,47.43
2023-05-22T10:33:59.425Z,48.06
2023-05-22T10:36:37.119Z,47.24
2023-05-22T10:39:09.334Z,47.19
2023-05-22T10:41:35.888Z,47.30
2023-05-22T10:44:02.613Z,46.93
2023-05-22T10:46:32.330Z,46.65
2023-05-22T10:48:58.854Z,47.09
2023-05-22T10:51:25.574Z,46.62
2023-05-22T10:54:00.870Z,46.83
2023-05-22T10:56:34.240Z,46.49
2023-05-22T10:59:04.784Z,46.18
2023-05-22T11:01:37.478Z,46.63
2023-05-22T11:04:03.976Z,46.48
2023-05-22T11:06:37.342Z,46.12
2023-05-22T11:09:11.879Z,46.14
2023-05-22T11:11:38.317Z,45.23
2023-05-22T11:14:04.867Z,44.97
2023-05-22T11:16:34.536Z,44.38
2023-05-22T11:19:22.053Z,44.85
2023-05-22T11:21:49.515Z,45.09
2023-05-22T11:24:18.785Z,44.49
2023-05-22T11:27:07.169Z,44.58
2023-05-22T11:29:34.111Z,44.15
2023-05-22T11:32:01.802Z,43.61
2023-05-22T11:34:28.304Z,43.62
2023-05-22T11:36:59.606Z,43.49
2023-05-22T11:39:26.731Z,42.82
2023-05-22T11:41:53.260Z,42.55
2023-05-22T11:44:19.880Z,42.60
2023-05-22T11:46:46.343Z,42.92
2023-05-22T11:49:17.260Z,43.14
2023-05-22T11:55:26.714Z,43.50
2023-05-22T11:57:55.287Z,42.96
2023-05-22T12:00:21.835Z,42.22
2023-05-22T12:02:48.549Z,42.06
2023-05-22T12:05:16.441Z,41.94
2023-05-22T12:07:43.250Z,42.30
2023-05-22T12:10:14.358Z,42.02
2023-05-22T12:13:07.398Z,42.34
2023-05-22T12:15:33.850Z,41.90
2023-05-22T12:18:00.334Z,41.99
2023-05-22T12:20:31.110Z,41.54
2023-05-22T12:22:58.871Z,40.77
2023-05-22T12:25:36.080Z,41.18
2023-05-22T12:28:02.503Z,41.47
2023-05-22T12:30:45.232Z,41.62
2023-05-22T12:33:17.947Z,41.69
2023-05-22T12:35:51.050Z,41.26
2023-05-22T12:38:21.168Z,40.70
2023-05-22T12:41:49.424Z,40.81
2023-05-22T12:44:16.409Z,40.62
2023-05-22T12:46:43.208Z,39.67
2023-05-22T12:51:44.957Z,39.78
2023-05-22T12:54:11.402Z,39.78
2023-05-22T12:56:50.265Z,39.19
2023-05-22T12:59:17.352Z,38.82
2023-05-22T13:01:44.870Z,38.83
2023-05-22T13:04:11.301Z,37.71
2023-05-22T13:06:37.656Z,37.38
2023-05-22T13:09:04.054Z,37.48
2023-05-22T13:11:30.990Z,36.89
2023-05-22T13:13:57.699Z,36.80
2023-05-22T13:16:24.088Z,37.42
2023-05-22T13:18:50.767Z,36.80
2023-05-22T13:21:17.444Z,36.39
2023-05-22T13:23:43.821Z,36.41
2023-05-22T13:26:10.184Z,36.48
2023-05-22T13:28:36.629Z,36.21
2023-05-22T13:31:03.054Z,36.78
2023-05-22T13:33:29.463Z,37.38
2023-05-22T13:35:55.906Z,37.16
2023-05-22T13:38:22.425Z,36.88
2023-05-22T13:40:49.045Z,37.18
2023-05-22T13:43:47.867Z,37.91
2023-05-22T13:46:14.293Z,37.44
2023-05-22T13:48:40.690Z,37.27
2023-05-22T13:51:07.092Z,36.25
2023-05-22T13:53:33.612Z,36.01
2023-05-22T13:56:31.946Z,37.11
2023-05-22T13:58:58.375Z,36.28
2023-05-22T14:01:24.835Z,36.21
2023-05-22T14:03:51.355Z,36.11
2023-05-22T14:06:17.746Z,35.78
2023-05-22T14:08:44.104Z,35.99
2023-05-22T14:11:10.710Z,36.10
2023-05-22T14:13:37.262Z,35.80
2023-05-22T14:16:03.717Z,36.52
2023-05-22T14:18:31.284Z,36.09
2023-05-22T14:20:57.759Z,35.95
2023-05-22T14:23:24.970Z,35.36
2023-05-22T14:25:51.406Z,35.95
2023-05-22T14:28:18.146Z,35.16
2023-05-22T14:30:44.700Z,34.81
2023-05-22T14:33:11.355Z,34.71
2023-05-22T14:35:37.943Z,34.49
2023-05-22T14:38:04.374Z,34.46
2023-05-22T14:40:30.896Z,34.00
2023-05-22T14:42:57.284Z,34.36
2023-05-22T14:45:23.787Z,35.17
2023-05-22T14:47:50.465Z,34.92
2023-05-22T14:50:19.931Z,34.56
2023-05-22T14:52:48.254Z,35.00
2023-05-22T14:55:15.101Z,34.87
2023-05-22T14:57:41.485Z,34.88
2023-05-22T15:00:12.193Z,34.98
2023-05-22T15:02:39.238Z,34.37
2023-05-22T15:05:07.141Z,34.83
2023-05-22T15:10:03.248Z,34.73
2023-05-22T15:12:29.710Z,35.09
2023-05-22T15:14:56.097Z,35.23
2023-05-22T15:17:22.500Z,34.68
2023-05-22T15:19:49.594Z,34.29
2023-05-22T15:22:19.883Z,34.36
2023-05-22T15:25:04.291Z,34.13
2023-05-22T15:27:30.934Z,34.51
2023-05-22T15:29:57.706Z,35.04
2023-05-22T15:32:24.089Z,34.67
2023-05-22T15:34:50.508Z,34.39
2023-05-22T15:37:16.911Z,34.35
2023-05-22T15:39:43.317Z,34.71
2023-05-22T15:42:09.807Z,34.50
2023-05-22T15:44:36.164Z,34.39
2023-05-22T15:47:02.605Z,34.10
2023-05-22T15:49:31.256Z,33.70
2023-05-22T15:51:58.616Z,33.70
2023-05-22T15:54:25.111Z,33.68
2023-05-22T15:56:51.527Z,33.69
2023-05-22T16:01:53.181Z,32.97
2023-05-22T16:04:19.543Z,33.11
2023-05-22T16:06:45.977Z,32.80
2023-05-22T16:09:12.558Z,32.73
2023-05-22T16:11:38.929Z,32.81
2023-05-22T16:14:05.386Z,33.27
2023-05-22T16:16:31.846Z,33.26
2023-05-22T16:18:58.327Z,33.27
2023-05-22T16:21:24.934Z,33.75
2023-05-22T16:23:51.311Z,33.71
2023-05-22T16:26:17.792Z,33.53
2023-05-22T16:28:44.165Z,34.22
2023-05-22T16:31:12.744Z,33.94
2023-05-22T16:33:39.165Z,34.17
2023-05-22T16:36:05.903Z,34.16
2023-05-22T16:38:32.336Z,34.53
2023-05-22T16:40:58.834Z,34.86
2023-05-22T16:43:25.366Z,35.29
2023-05-22T16:45:51.760Z,36.30
2023-05-22T16:48:18.749Z,37.12
2023-05-22T16:50:46.895Z,47.75
2023-05-22T16:53:13.898Z,49.34
2023-05-22T16:55:40.502Z,50.11
2023-05-22T16:58:07.270Z,50.68
2023-05-22T17:00:33.766Z,52.13
2023-05-22T17:03:00.513Z,51.48
2023-05-22T17:05:27.095Z,51.49
2023-05-22T17:07:53.484Z,52.54
2023-05-22T17:10:19.965Z,52.72
2023-05-22T17:12:46.501Z,54.40
2023-05-22T17:15:13.030Z,55.18
2023-05-22T17:17:39.540Z,56.64
2023-05-22T17:20:07.115Z,56.09
2023-05-22T17:22:33.793Z,56.23
2023-05-22T17:25:00.184Z,56.28
2023-05-22T17:27:35.603Z,55.14
2023-05-22T17:30:04.747Z,54.86
2023-05-22T17:32:31.352Z,53.39
2023-05-22T17:34:57.868Z,54.17
2023-05-22T17:37:24.270Z,54.45
2023-05-22T17:39:51.592Z,54.16
2023-05-22T17:42:18.036Z,53.96
2023-05-22T17:44:44.565Z,52.98
2023-05-22T17:47:10.974Z,50.99
2023-05-22T17:49:37.519Z,51.08
2023-05-22T17:52:04.044Z,50.57
2023-05-22T17:54:34.583Z,50.46
2023-05-22T17:57:03.036Z,51.03
2023-05-22T17:59:32.146Z,51.57
2023-05-22T18:01:58.681Z,51.43
2023-05-22T18:04:25.218Z,51.45
2023-05-22T18:06:52.109Z,52.20
2023-05-22T18:09:18.515Z,52.47
2023-05-22T18:11:44.875Z,52.09
2023-05-22T18:14:11.285Z,51.87
2023-05-22T18:16:37.742Z,52.91
2023-05-22T18:19:04.320Z,52.48
2023-05-22T18:21:30.738Z,52.76
2023-05-22T18:23:57.148Z,53.84
2023-05-22T18:26:23.601Z,53.13
2023-05-22T18:28:49.988Z,53.71
2023-05-22T18:31:16.629Z,53.85
2023-05-22T18:33:45.125Z,53.65
2023-05-22T18:36:12.677Z,55.03
2023-05-22T18:38:39.096Z,54.09
2023-05-22T18:41:06.134Z,54.26
2023-05-22T18:43:32.679Z,55.17
2023-05-22T18:45:59.126Z,54.67
2023-05-22T18:48:27.102Z,55.55
2023-05-22T18:50:53.869Z,55.66
2023-05-22T18:53:22.152Z,54.91
2023-05-22T18:55:48.742Z,55.21
2023-05-22T18:58:15.316Z,54.92
2023-05-22T19:00:42.015Z,55.57
2023-05-22T19:03:11.206Z,55.40
2023-05-22T19:05:37.915Z,55.57
2023-05-22T19:08:05.279Z,56.27
2023-05-22T19:10:32.969Z,55.70
2023-05-22T19:12:59.384Z,55.33
2023-05-22T19:15:26.036Z,55.65
2023-05-22T19:17:52.764Z,55.40
2023-05-22T19:20:19.353Z,55.59
2023-05-22T19:22:45.788Z,56.22
2023-05-22T19:25:12.264Z,56.63
2023-05-22T19:27:39.468Z,56.25
2023-05-22T19:30:07.150Z,56.04
2023-05-22T19:32:33.799Z,56.38
2023-05-22T19:35:00.352Z,56.19
2023-05-22T19:37:26.801Z,54.94
2023-05-22T19:42:34.729Z,54.17
2023-05-22T19:45:02.527Z,54.35
2023-05-22T19:47:29.029Z,53.01
2023-05-22T19:49:55.790Z,52.19
2023-05-22T19:52:22.665Z,51.08
2023-05-22T19:54:49.300Z,50.74
2023-05-22T19:58:05.746Z,50.42
2023-05-22T20:00:33.333Z,50.00
2023-05-22T20:02:59.780Z,50.34
2023-05-22T20:05:26.333Z,50.35
2023-05-22T20:07:52.891Z,50.26
2023-05-22T20:10:19.506Z,50.06
2023-05-22T20:12:47.127Z,50.09
2023-05-22T20:15:14.972Z,50.36
2023-05-22T20:17:42.498Z,50.67
2023-05-22T20:20:09.809Z,50.84
2023-05-22T20:22:36.538Z,50.47
2023-05-22T20:25:05.125Z,51.36
2023-05-22T20:27:37.512Z,51.44
2023-05-22T20:30:04.650Z,51.72
2023-05-22T20:32:32.327Z,50.95
2023-05-22T20:34:59.168Z,51.25
2023-05-22T20:37:26.498Z,51.32
2023-05-22T20:39:53.167Z,51.19
2023-05-22T20:42:19.617Z,51.04
2023-05-22T20:44:46.511Z,51.59
2023-05-22T20:47:13.072Z,51.88
2023-05-22T20:52:07.345Z,52.17
2023-05-22T20:54:34.719Z,52.04
2023-05-22T20:57:01.897Z,52.12
2023-05-22T20:59:29.117Z,52.38
2023-05-22T21:01:56.950Z,52.67
2023-05-22T21:04:24.277Z,52.62
2023-05-22T21:06:51.347Z,52.91
2023-05-22T21:11:48.595Z,53.17
2023-05-22T21:14:17.153Z,53.60
2023-05-22T21:16:43.661Z,53.25
2023-05-22T21:19:10.214Z,53.55
2023-05-22T21:21:41.464Z,53.98
2023-05-22T21:24:11.809Z,54.11
2023-05-22T21:26:38.311Z,54.54
2023-05-22T21:29:09.702Z,54.60
2023-05-22T21:31:36.368Z,54.50
2023-05-22T21:34:28.605Z,54.74
2023-05-22T21:36:57.657Z,54.68
2023-05-22T21:39:24.204Z,55.22
2023-05-22T21:41:50.640Z,54.91
2023-05-22T21:44:17.193Z,55.15
2023-05-22T21:46:43.731Z,55.35
2023-05-22T21:49:10.270Z,55.65
2023-05-22T21:51:37.010Z,55.61
2023-05-22T21:54:03.566Z,55.81
2023-05-22T21:56:29.997Z,56.24
2023-05-22T21:58:56.591Z,56.20
2023-05-22T22:01:23.161Z,56.01
2023-05-22T22:03:49.796Z,56.38
2023-05-22T22:06:25.471Z,56.34
2023-05-22T22:08:53.164Z,56.55
2023-05-22T22:11:19.650Z,56.41
2023-05-22T22:13:51.885Z,56.56
2023-05-22T22:16:18.358Z,56.48
2023-05-22T22:18:44.881Z,57.13
2023-05-22T22:21:11.909Z,57.53
2023-05-22T22:23:38.428Z,57.14
2023-05-22T22:26:37.518Z,56.92
2023-05-22T22:31:32.279Z,57.30
2023-05-22T22:33:58.891Z,57.18
2023-05-22T22:36:25.775Z,57.42
2023-05-22T22:38:52.207Z,57.45
2023-05-22T22:41:18.667Z,57.38
2023-05-22T22:44:13.933Z,57.48
2023-05-22T22:47:33.369Z,57.50
2023-05-22T22:49:59.855Z,57.90
2023-05-22T22:52:37.898Z,57.53
2023-05-22T22:55:06.170Z,57.76
2023-05-22T22:57:32.883Z,58.20
2023-05-22T22:59:59.423Z,58.32
2023-05-22T23:02:25.901Z,58.42
2023-05-22T23:04:52.528Z,58.50
2023-05-22T23:07:19.136Z,58.49
2023-05-22T23:09:45.581Z,58.64
2023-05-22T23:12:12.100Z,58.71
2023-05-22T23:14:38.635Z,58.74
2023-05-22T23:17:05.768Z,58.86
2023-05-22T23:19:32.328Z,58.87
2023-05-22T23:21:58.888Z,58.34
2023-05-22T23:24:25.358Z,58.33
2023-05-22T23:26:52.795Z,58.33
2023-05-22T23:29:19.378Z,58.21
2023-05-22T23:31:47.347Z,58.25
2023-05-22T23:34:14.018Z,58.33
2023-05-22T23:36:40.714Z,58.49
2023-05-22T23:39:07.295Z,58.21
2023-05-22T23:41:33.910Z,58.38
2023-05-22T23:44:00.570Z,58.57
2023-05-22T23:46:27.205Z,58.46
2023-05-22T23:48:53.657Z,58.02
2023-05-22T23:51:20.129Z,57.51
2023-05-22T23:53:46.770Z,58.10
2023-05-22T23:56:13.317Z,57.83
2023-05-22T23:58:39.822Z,57.69
